Terminal Aerodrome Forecast
Issued by NWS

Home | Current Version | Previous Version | Text Only | Print | Product List | Glossary On
Versions: 1 2 3 4 5 6 7 8 9 10 11 12 13 14 15 16 17 18 19 20 21 22 23 24 25
000
FTUS43 KABR 251739
TAFPIR
TAF
KPIR 251739Z 2518/2618 32008KT P6SM FEW080 FEW250
     FM260500 14005KT P6SM BKN200
     FM260700 13005KT P6SM VCSH BKN150
     FM260900 11007KT P6SM SCT200 WS020/17025KT=

USA.gov is the U.S. government's official web portal to all federal, state and local government web resources and services.